Time,TemperatureF,DewpointF,PressureIn,WindDirection,WindDirectionDegrees,WindSpeedMPH,WindSpeedGustMPH,Humidity,HourlyPrecipIn,Conditions,Clouds,dailyrainin,SoftwareType,DateUTC
2013-03-05 00:01:00,42.0,41.0,29.62,SSW,203,0.0,-999.0,96,-99.99,,,-99.99,,2013-03-05 08:01:00,
2013-03-05 00:11:00,42.0,41.0,29.62,SSW,203,0.0,-999.0,96,-99.99,,,-99.99,,2013-03-05 08:11:00,
2013-03-05 00:21:00,42.0,41.0,29.62,SSW,203,0.0,-999.0,96,-99.99,,,-99.99,,2013-03-05 08:21:00,
2013-03-05 00:31:00,43.0,42.0,29.63,WSW,240,0.0,-999.0,95,-99.99,,,-99.99,,2013-03-05 08:31:00,
2013-03-05 00:41:00,43.0,42.0,29.63,WSW,240,0.0,-999.0,95,-99.99,,,-99.99,,2013-03-05 08:41:00,
2013-03-05 00:52:00,42.0,40.0,29.63,West,269,0.0,-999.0,93,-99.99,,,-99.99,,2013-03-05 08:52:00,
2013-03-05 01:01:00,39.0,37.0,29.62,WSW,239,0.0,-999.0,93,-99.99,,,-99.99,,2013-03-05 09:01:00,
2013-03-05 01:11:00,39.0,37.0,29.62,WSW,239,0.0,-999.0,93,-99.99,,,-99.99,,2013-03-05 09:11:00,
2013-03-05 01:21:00,38.0,36.0,29.62,SW,217,0.0,-999.0,94,-99.99,,,-99.99,,2013-03-05 09:21:00,
2013-03-05 01:31:00,38.0,37.0,29.62,SSW,202,0.0,-999.0,95,-99.99,,,-99.99,,2013-03-05 09:31:00,
2013-03-05 01:42:00,38.0,37.0,29.62,SSW,202,0.0,-999.0,95,-99.99,,,-99.99,,2013-03-05 09:42:00,
2013-03-05 01:52:00,39.0,38.0,29.62,SSW,205,0.0,-999.0,95,-99.99,,,-99.99,,2013-03-05 09:52:00,
2013-03-05 02:01:00,38.0,36.0,29.61,SSW,209,0.0,-999.0,93,-99.99,,,-99.99,,2013-03-05 10:01:00,
2013-03-05 02:11:00,38.0,36.0,29.61,SSW,209,0.0,-999.0,93,-99.99,,,-99.99,,2013-03-05 10:11:00,
2013-03-05 02:21:00,37.0,35.0,29.61,SW,216,0.0,-999.0,94,-99.99,,,-99.99,,2013-03-05 10:21:00,
2013-03-05 02:32:00,37.0,36.0,29.61,WNW,300,1.0,-999.0,95,-99.99,,,-99.99,,2013-03-05 10:32:00,
2013-03-05 02:41:00,37.0,36.0,29.61,WNW,300,1.0,-999.0,95,-99.99,,,-99.99,,2013-03-05 10:41:00,
2013-03-05 02:52:00,38.0,37.0,29.62,NW,307,0.0,-999.0,95,-99.99,,,-99.99,,2013-03-05 10:52:00,
2013-03-05 03:01:00,39.0,38.0,29.62,NW,312,1.0,-999.0,96,-99.99,,,-99.99,,2013-03-05 11:01:00,
2013-03-05 03:11:00,39.0,38.0,29.62,NW,312,1.0,-999.0,96,-99.99,,,-99.99,,2013-03-05 11:11:00,
2013-03-05 03:21:00,39.0,38.0,29.62,NW,312,1.0,-999.0,96,-99.99,,,-99.99,,2013-03-05 11:21:00,
2013-03-05 03:32:00,39.0,38.0,29.61,East,82,0.0,-999.0,95,-99.99,,,-99.99,,2013-03-05 11:32:00,
2013-03-05 03:41:00,39.0,38.0,29.61,East,82,0.0,-999.0,95,-99.99,,,-99.99,,2013-03-05 11:41:00,
2013-03-05 03:52:00,39.0,38.0,29.62,NE,40,1.0,-999.0,95,-99.99,,,-99.99,,2013-03-05 11:52:00,
2013-03-05 04:02:00,39.0,38.0,29.63,North,10,2.0,-999.0,95,-99.99,,,-99.99,,2013-03-05 12:02:00,
2013-03-05 04:11:00,39.0,38.0,29.63,North,10,2.0,-999.0,95,-99.99,,,-99.99,,2013-03-05 12:11:00,
2013-03-05 04:22:00,39.0,38.0,29.63,North,349,0.0,-999.0,96,-99.99,,,-99.99,,2013-03-05 12:22:00,
2013-03-05 04:32:00,39.0,38.0,29.63,NNW,337,0.0,-999.0,96,-99.99,,,-99.99,,2013-03-05 12:32:00,
2013-03-05 04:42:00,39.0,38.0,29.63,NNW,337,0.0,-999.0,96,-99.99,,,-99.99,,2013-03-05 12:42:00,
2013-03-05 04:52:00,39.0,38.0,29.63,NW,309,0.0,-999.0,96,-99.99,,,-99.99,,2013-03-05 12:52:00,
2013-03-05 05:01:00,39.0,38.0,29.63,NNW,329,0.0,-999.0,96,-99.99,,,-99.99,,2013-03-05 13:01:00,
2013-03-05 05:11:00,39.0,38.0,29.63,NNW,329,0.0,-999.0,96,-99.99,,,-99.99,,2013-03-05 13:11:00,
2013-03-05 05:21:00,39.0,38.0,29.64,NNW,341,0.0,-999.0,96,-99.99,,,-99.99,,2013-03-05 13:21:00,
2013-03-05 05:31:00,39.0,38.0,29.63,NW,306,0.0,-999.0,96,-99.99,,,-99.99,,2013-03-05 13:31:00,
2013-03-05 05:41:00,39.0,38.0,29.63,NW,306,0.0,-999.0,96,-99.99,,,-99.99,,2013-03-05 13:41:00,
2013-03-05 05:52:00,39.0,38.0,29.64,NW,308,0.0,-999.0,96,-99.99,,,-99.99,,2013-03-05 13:52:00,
2013-03-05 06:02:00,39.0,38.0,29.64,NW,308,0.0,-999.0,96,-99.99,,,-99.99,,2013-03-05 14:02:00,
2013-03-05 06:11:00,39.0,38.0,29.64,NW,308,0.0,-999.0,96,-99.99,,,-99.99,,2013-03-05 14:11:00,
2013-03-05 06:21:00,39.0,38.0,29.63,SSE,164,1.0,-999.0,96,-99.99,,,-99.99,,2013-03-05 14:21:00,
2013-03-05 06:31:00,39.0,38.0,29.62,SSW,194,5.0,-999.0,96,-99.99,,,-99.99,,2013-03-05 14:31:00,
2013-03-05 06:41:00,39.0,38.0,29.62,SSW,194,5.0,-999.0,96,-99.99,,,-99.99,,2013-03-05 14:41:00,
2013-03-05 06:52:00,38.0,37.0,29.62,SSE,156,4.0,-999.0,96,-99.99,,,-99.99,,2013-03-05 14:52:00,
2013-03-05 07:01:00,38.0,37.0,29.62,North,350,3.0,-999.0,96,-99.99,,,-99.99,,2013-03-05 15:01:00,
2013-03-05 07:11:00,38.0,37.0,29.62,North,350,3.0,-999.0,96,-99.99,,,-99.99,,2013-03-05 15:11:00,
2013-03-05 07:21:00,38.0,37.0,29.62,SSW,204,0.0,-999.0,96,-99.99,,,-99.99,,2013-03-05 15:21:00,
2013-03-05 07:31:00,39.0,38.0,29.62,SSE,152,0.0,-999.0,96,-99.99,,,-99.99,,2013-03-05 15:31:00,
2013-03-05 07:42:00,39.0,38.0,29.62,SSE,152,0.0,-999.0,96,-99.99,,,-99.99,,2013-03-05 15:42:00,
2013-03-05 07:52:00,39.0,38.0,29.63,NNW,348,0.0,-999.0,96,-99.99,,,-99.99,,2013-03-05 15:52:00,
2013-03-05 08:01:00,39.0,38.0,29.63,West,265,0.0,-999.0,96,-99.99,,,-99.99,,2013-03-05 16:01:00,
2013-03-05 08:11:00,39.0,38.0,29.63,West,265,0.0,-999.0,96,-99.99,,,-99.99,,2013-03-05 16:11:00,
2013-03-05 08:21:00,39.0,38.0,29.64,NNW,340,0.0,-999.0,96,-99.99,,,-99.99,,2013-03-05 16:21:00,
2013-03-05 08:31:00,39.0,38.0,29.64,ESE,103,0.0,-999.0,96,-99.99,,,-99.99,,2013-03-05 16:31:00,
2013-03-05 08:41:00,39.0,38.0,29.64,ESE,103,0.0,-999.0,96,-99.99,,,-99.99,,2013-03-05 16:41:00,
2013-03-05 08:52:00,39.0,38.0,29.65,North,360,0.0,-999.0,96,-99.99,,,-99.99,,2013-03-05 16:52:00,
2013-03-05 09:01:00,40.0,39.0,29.64,NNW,331,0.0,-999.0,97,-99.99,,,-99.99,,2013-03-05 17:01:00,
2013-03-05 09:11:00,40.0,39.0,29.64,NNW,331,0.0,-999.0,97,-99.99,,,-99.99,,2013-03-05 17:11:00,
2013-03-05 09:21:00,41.0,40.0,29.64,NNW,348,0.0,-999.0,97,-99.99,,,-99.99,,2013-03-05 17:21:00,
2013-03-05 09:32:00,41.0,40.0,29.64,NNW,348,0.0,-999.0,97,-99.99,,,-99.99,,2013-03-05 17:32:00,
2013-03-05 09:41:00,41.0,40.0,29.64,NNW,348,0.0,-999.0,97,-99.99,,,-99.99,,2013-03-05 17:41:00,
2013-03-05 09:52:00,41.0,40.0,29.63,ENE,63,0.0,-999.0,97,-99.99,,,-99.99,,2013-03-05 17:52:00,
2013-03-05 10:01:00,44.0,43.0,29.62,NNE,18,0.0,-999.0,97,-99.99,,,-99.99,,2013-03-05 18:01:00,
2013-03-05 10:11:00,44.0,43.0,29.62,NNE,18,0.0,-999.0,97,-99.99,,,-99.99,,2013-03-05 18:11:00,
2013-03-05 10:21:00,44.0,43.0,29.62,NE,56,0.0,-999.0,97,-99.99,,,-99.99,,2013-03-05 18:21:00,
2013-03-05 10:31:00,45.0,44.0,29.62,North,10,0.0,-999.0,96,-99.99,,,-99.99,,2013-03-05 18:31:00,
2013-03-05 10:41:00,45.0,44.0,29.62,North,10,0.0,-999.0,96,-99.99,,,-99.99,,2013-03-05 18:41:00,
2013-03-05 10:53:00,46.0,44.0,29.62,NNE,14,0.0,-999.0,91,-99.99,,,-99.99,,2013-03-05 18:53:00,
2013-03-05 11:01:00,47.0,43.0,29.61,NE,36,0.0,-999.0,86,-99.99,,,-99.99,,2013-03-05 19:01:00,
2013-03-05 11:11:00,47.0,43.0,29.61,NE,36,0.0,-999.0,86,-99.99,,,-99.99,,2013-03-05 19:11:00,
2013-03-05 11:21:00,49.0,44.0,29.60,NNW,337,0.0,-999.0,82,-99.99,,,-99.99,,2013-03-05 19:21:00,
2013-03-05 11:31:00,51.0,44.0,29.61,North,5,0.0,-999.0,78,-99.99,,,-99.99,,2013-03-05 19:31:00,
2013-03-05 11:41:00,51.0,44.0,29.61,North,5,0.0,-999.0,78,-99.99,,,-99.99,,2013-03-05 19:41:00,
2013-03-05 11:52:00,51.0,43.0,29.60,NE,42,1.0,-999.0,73,-99.99,,,-99.99,,2013-03-05 19:52:00,
2013-03-05 12:01:00,51.0,42.0,29.60,North,355,3.0,-999.0,71,-99.99,,,-99.99,,2013-03-05 20:01:00,
2013-03-05 12:11:00,51.0,42.0,29.60,North,355,3.0,-999.0,71,-99.99,,,-99.99,,2013-03-05 20:11:00,
2013-03-05 12:21:00,51.0,42.0,29.60,North,355,3.0,-999.0,71,-99.99,,,-99.99,,2013-03-05 20:21:00,
2013-03-05 12:32:00,51.0,42.0,29.59,North,11,7.0,-999.0,71,-99.99,,,-99.99,,2013-03-05 20:32:00,
2013-03-05 12:41:00,51.0,42.0,29.59,North,11,7.0,-999.0,71,-99.99,,,-99.99,,2013-03-05 20:41:00,
2013-03-05 12:52:00,51.0,43.0,29.59,NNE,28,6.0,-999.0,73,-99.99,,,-99.99,,2013-03-05 20:52:00,
2013-03-05 13:01:00,51.0,43.0,29.57,NE,42,6.0,-999.0,73,-99.99,,,-99.99,,2013-03-05 21:01:00,
2013-03-05 13:11:00,51.0,43.0,29.57,NE,42,6.0,-999.0,73,-99.99,,,-99.99,,2013-03-05 21:11:00,
2013-03-05 13:21:00,51.0,42.0,29.57,North,355,6.0,-999.0,72,-99.99,,,-99.99,,2013-03-05 21:21:00,
2013-03-05 13:31:00,51.0,42.0,29.56,NE,46,7.0,-999.0,71,-99.99,,,-99.99,,2013-03-05 21:31:00,
2013-03-05 13:41:00,51.0,42.0,29.56,NE,46,7.0,-999.0,71,-99.99,,,-99.99,,2013-03-05 21:41:00,
2013-03-05 13:52:00,51.0,42.0,29.55,NNE,31,5.0,-999.0,71,-99.99,,,-99.99,,2013-03-05 21:52:00,
2013-03-05 14:01:00,51.0,42.0,29.55,NNE,23,6.0,-999.0,71,-99.99,,,-99.99,,2013-03-05 22:01:00,
2013-03-05 14:11:00,51.0,42.0,29.55,NNE,23,6.0,-999.0,71,-99.99,,,-99.99,,2013-03-05 22:11:00,
2013-03-05 14:21:00,52.0,42.0,29.54,NE,34,5.0,-999.0,69,-99.99,,,-99.99,,2013-03-05 22:21:00,
2013-03-05 14:31:00,52.0,43.0,29.54,NNE,15,4.0,-999.0,70,-99.99,,,-99.99,,2013-03-05 22:31:00,
2013-03-05 14:41:00,52.0,43.0,29.54,NNE,15,4.0,-999.0,70,-99.99,,,-99.99,,2013-03-05 22:41:00,
2013-03-05 14:52:00,52.0,42.0,29.54,NE,46,5.0,-999.0,69,-99.99,,,-99.99,,2013-03-05 22:52:00,
2013-03-05 15:01:00,53.0,43.0,29.53,ENE,75,4.0,-999.0,70,-99.99,,,-99.99,,2013-03-05 23:01:00,
2013-03-05 15:11:00,53.0,43.0,29.53,ENE,75,4.0,-999.0,70,-99.99,,,-99.99,,2013-03-05 23:11:00,
2013-03-05 15:21:00,53.0,42.0,29.53,NNE,24,3.0,-999.0,67,-99.99,,,-99.99,,2013-03-05 23:21:00,
2013-03-05 15:32:00,53.0,43.0,29.53,NE,49,3.0,-999.0,68,-99.99,,,-99.99,,2013-03-05 23:32:00,
2013-03-05 15:41:00,53.0,43.0,29.53,NE,49,3.0,-999.0,68,-99.99,,,-99.99,,2013-03-05 23:41:00,
2013-03-05 15:52:00,52.0,42.0,29.53,NE,50,1.0,-999.0,69,-99.99,,,-99.99,,2013-03-05 23:52:00,
2013-03-05 16:01:00,53.0,43.0,29.53,NNE,24,1.0,-999.0,69,-99.99,,,-99.99,,2013-03-06 00:01:00,
2013-03-05 16:11:00,53.0,43.0,29.53,NNE,24,1.0,-999.0,69,-99.99,,,-99.99,,2013-03-06 00:11:00,
2013-03-05 16:21:00,53.0,43.0,29.53,NE,34,1.0,-999.0,68,-99.99,,,-99.99,,2013-03-06 00:21:00,
2013-03-05 16:32:00,53.0,43.0,29.53,NE,34,1.0,-999.0,68,-99.99,,,-99.99,,2013-03-06 00:32:00,
2013-03-05 16:41:00,53.0,43.0,29.53,NE,34,1.0,-999.0,68,-99.99,,,-99.99,,2013-03-06 00:41:00,
2013-03-05 16:52:00,52.0,39.0,29.52,SSE,165,1.0,-999.0,61,-99.99,,,-99.99,,2013-03-06 00:52:00,
2013-03-05 17:01:00,52.0,42.0,29.52,West,280,1.0,-999.0,68,-99.99,,,-99.99,,2013-03-06 01:01:00,
2013-03-05 17:11:00,52.0,42.0,29.52,West,280,1.0,-999.0,68,-99.99,,,-99.99,,2013-03-06 01:11:00,
2013-03-05 17:21:00,52.0,38.0,29.52,West,277,4.0,-999.0,59,-99.99,,,-99.99,,2013-03-06 01:21:00,
2013-03-05 17:31:00,51.0,33.0,29.52,SSW,203,6.0,-999.0,50,-99.99,,,-99.99,,2013-03-06 01:31:00,
2013-03-05 17:41:00,51.0,33.0,29.52,SSW,203,6.0,-999.0,50,-99.99,,,-99.99,,2013-03-06 01:41:00,
2013-03-05 17:52:00,49.0,30.0,29.51,SW,230,12.0,-999.0,48,-99.99,,,-99.99,,2013-03-06 01:52:00,
2013-03-05 18:01:00,47.0,29.0,29.51,SW,217,11.0,-999.0,50,-99.99,,,-99.99,,2013-03-06 02:01:00,
2013-03-05 18:11:00,47.0,29.0,29.51,SW,217,11.0,-999.0,50,-99.99,,,-99.99,,2013-03-06 02:11:00,
2013-03-05 18:21:00,47.0,30.0,29.50,SW,215,11.0,-999.0,52,-99.99,,,-99.99,,2013-03-06 02:21:00,
2013-03-05 18:31:00,47.0,29.0,29.50,SW,223,8.0,-999.0,50,-99.99,,,-99.99,,2013-03-06 02:31:00,
2013-03-05 18:41:00,47.0,29.0,29.50,SW,223,8.0,-999.0,50,-99.99,,,-99.99,,2013-03-06 02:41:00,
2013-03-05 18:52:00,46.0,29.0,29.52,West,269,10.0,-999.0,51,-99.99,,,-99.99,,2013-03-06 02:52:00,
2013-03-05 19:01:00,46.0,30.0,29.51,SSW,194,12.0,-999.0,54,-99.99,,,-99.99,,2013-03-06 03:01:00,
2013-03-05 19:11:00,46.0,30.0,29.51,SSW,194,12.0,-999.0,54,-99.99,,,-99.99,,2013-03-06 03:11:00,
2013-03-05 19:21:00,46.0,30.0,29.51,South,181,14.0,-999.0,54,-99.99,,,-99.99,,2013-03-06 03:21:00,
2013-03-05 19:31:00,46.0,30.0,29.51,South,179,11.0,-999.0,53,-99.99,,,-99.99,,2013-03-06 03:31:00,
2013-03-05 19:41:00,46.0,30.0,29.51,South,179,11.0,-999.0,53,-99.99,,,-99.99,,2013-03-06 03:41:00,
2013-03-05 19:52:00,46.0,32.0,29.50,South,173,14.0,-999.0,57,-99.99,,,-99.99,,2013-03-06 03:52:00,
2013-03-05 20:01:00,45.0,32.0,29.50,SSE,160,12.0,-999.0,61,-99.99,,,-99.99,,2013-03-06 04:01:00,
2013-03-05 20:11:00,45.0,32.0,29.50,SSE,160,12.0,-999.0,61,-99.99,,,-99.99,,2013-03-06 04:11:00,
2013-03-05 20:21:00,45.0,32.0,29.50,SSE,160,12.0,-999.0,61,-99.99,,,-99.99,,2013-03-06 04:21:00,
2013-03-05 20:31:00,44.0,34.0,29.50,SSW,192,13.0,-999.0,67,-99.99,,,-99.99,,2013-03-06 04:31:00,
2013-03-05 20:41:00,44.0,34.0,29.50,SSW,192,13.0,-999.0,67,-99.99,,,-99.99,,2013-03-06 04:41:00,
2013-03-05 20:52:00,44.0,34.0,29.49,South,172,9.0,-999.0,69,-99.99,,,-99.99,,2013-03-06 04:52:00,
2013-03-05 21:01:00,44.0,34.0,29.50,SSE,159,8.0,-999.0,68,-99.99,,,-99.99,,2013-03-06 05:01:00,
2013-03-05 21:11:00,44.0,34.0,29.50,SSE,159,8.0,-999.0,68,-99.99,,,-99.99,,2013-03-06 05:11:00,
2013-03-05 21:22:00,44.0,34.0,29.49,South,175,14.0,-999.0,68,-99.99,,,-99.99,,2013-03-06 05:22:00,
2013-03-05 21:32:00,44.0,34.0,29.50,South,182,13.0,-999.0,68,-99.99,,,-99.99,,2013-03-06 05:32:00,
2013-03-05 21:42:00,44.0,34.0,29.50,South,182,13.0,-999.0,68,-99.99,,,-99.99,,2013-03-06 05:42:00,
2013-03-05 21:52:00,44.0,34.0,29.50,South,190,8.0,-999.0,69,-99.99,,,-99.99,,2013-03-06 05:52:00,
2013-03-05 22:01:00,45.0,36.0,29.50,SSW,210,12.0,-999.0,71,-99.99,,,-99.99,,2013-03-06 06:01:00,
2013-03-05 22:11:00,45.0,36.0,29.50,SSW,210,12.0,-999.0,71,-99.99,,,-99.99,,2013-03-06 06:11:00,
2013-03-05 22:22:00,44.0,37.0,29.49,WSW,242,11.0,-999.0,75,-99.99,,,-99.99,,2013-03-06 06:22:00,
2013-03-05 22:31:00,44.0,37.0,29.50,WSW,238,15.0,-999.0,75,-99.99,,,-99.99,,2013-03-06 06:31:00,
2013-03-05 22:41:00,44.0,37.0,29.50,WSW,238,15.0,-999.0,75,-99.99,,,-99.99,,2013-03-06 06:41:00,
2013-03-05 22:52:00,44.0,37.0,29.49,South,187,15.0,-999.0,75,-99.99,,,-99.99,,2013-03-06 06:52:00,
2013-03-05 23:01:00,45.0,38.0,29.49,South,189,16.0,-999.0,76,-99.99,,,-99.99,,2013-03-06 07:01:00,
2013-03-05 23:11:00,45.0,38.0,29.49,South,189,16.0,-999.0,76,-99.99,,,-99.99,,2013-03-06 07:11:00,
2013-03-05 23:22:00,45.0,40.0,29.51,WSW,238,13.0,-999.0,81,-99.99,,,-99.99,,2013-03-06 07:22:00,
2013-03-05 23:31:00,44.0,40.0,29.48,SSW,205,17.0,-999.0,87,-99.99,,,-99.99,,2013-03-06 07:31:00,
2013-03-05 23:41:00,44.0,40.0,29.48,SSW,205,17.0,-999.0,87,-99.99,,,-99.99,,2013-03-06 07:41:00,
2013-03-05 23:52:00,44.0,40.0,29.48,SSW,205,20.0,-999.0,87,-99.99,,,-99.99,,2013-03-06 07:52:00,